Perry Point, Maryland
Current Conditions -  °F | °C
As of 7:45 PM on Saturday 25 Oct 2014 (Local Time) from KMTN Reporting Station
Clear Clear  
Wind Chill: 66°   Ceiling: Unl
Heat Index: 66°   Visibility: 10mi
Dew Point: 45°   Wind: 0mph
Humidity: 46%   Direction: NA
Pressure: 29.73"   Gusts: NA
Location:  39.55°N, 76.07°W
Report Text: KMTN 252345Z 00000KT 10SM SKC 19/07 A2973
Loading
Personal Weather Stations






























Interactive Weather Map
Tropical Storm Tracking
New forecast layout! Learn more

10-Day Weather Forecast

Advertisements
Track Severe Weather on mobile